createdAt,value
2023-05-12T00:02:43.619Z,12.50
2023-05-12T00:07:47.363Z,12.60
2023-05-12T00:12:52.122Z,12.60
2023-05-12T00:17:53.838Z,12.50
2023-05-12T00:22:57.438Z,12.60
2023-05-12T00:28:00.116Z,12.50
2023-05-12T00:33:05.168Z,12.50
2023-05-12T00:38:06.912Z,12.40
2023-05-12T00:43:08.685Z,12.40
2023-05-12T00:48:10.481Z,12.50
2023-05-12T00:53:12.842Z,12.50
2023-05-12T00:58:15.750Z,12.40
2023-05-12T01:03:23.796Z,12.40
2023-05-12T01:08:26.698Z,12.40
2023-05-12T01:13:29.378Z,12.30
2023-05-12T01:18:39.150Z,12.40
2023-05-12T01:23:49.916Z,12.30
2023-05-12T01:28:56.655Z,12.30
2023-05-12T01:34:14.322Z,12.30
2023-05-12T01:39:17.988Z,12.30
2023-05-12T01:44:21.843Z,12.30
2023-05-12T01:49:43.835Z,12.30
2023-05-12T01:54:51.465Z,12.30
2023-05-12T02:00:02.209Z,12.30
2023-05-12T02:05:04.114Z,12.30
2023-05-12T02:10:06.422Z,12.30
2023-05-12T02:15:28.598Z,12.20
2023-05-12T02:20:31.242Z,12.20
2023-05-12T02:25:34.030Z,12.20
2023-05-12T02:30:38.769Z,12.20
2023-05-12T02:35:40.477Z,12.20
2023-05-12T02:40:44.101Z,12.20
2023-05-12T02:45:45.832Z,12.20
2023-05-12T02:50:49.530Z,12.10
2023-05-12T02:55:52.214Z,12.20
2023-05-12T03:01:06.669Z,12.20
2023-05-12T03:06:12.101Z,12.20
2023-05-12T03:11:15.005Z,12.40
2023-05-12T03:16:19.646Z,12.20
2023-05-12T03:21:22.501Z,12.20
2023-05-12T03:26:27.140Z,12.20
2023-05-12T03:31:42.048Z,12.20
2023-05-12T03:36:47.801Z,12.10
2023-05-12T03:41:49.458Z,12.10
2023-05-12T03:47:34.759Z,12.10
2023-05-12T03:53:05.594Z,12.10
2023-05-12T03:58:08.226Z,12.10
2023-05-12T04:03:10.948Z,12.10
2023-05-12T04:08:16.725Z,12.10
2023-05-12T04:13:22.360Z,12.20
2023-05-12T04:18:25.461Z,12.10
2023-05-12T04:23:30.292Z,12.10
2023-05-12T04:28:33.104Z,12.20
2023-05-12T04:33:35.756Z,12.20
2023-05-12T04:38:37.504Z,12.20
2023-05-12T04:48:46.800Z,12.20
2023-05-12T04:53:49.467Z,12.20
2023-05-12T04:58:54.164Z,12.30
2023-05-12T05:03:55.886Z,12.30
2023-05-12T05:09:11.841Z,12.30
2023-05-12T05:14:21.975Z,12.40
2023-05-12T05:19:45.910Z,12.30
2023-05-12T05:25:02.133Z,12.30
2023-05-12T05:30:04.348Z,12.10
2023-05-12T05:35:08.005Z,12.10
2023-05-12T05:40:10.825Z,12.00
2023-05-12T05:45:15.521Z,12.10
2023-05-12T05:50:19.195Z,12.10
2023-05-12T05:55:21.542Z,12.10
2023-05-12T06:00:27.451Z,12.10
2023-05-12T06:05:30.038Z,12.10
2023-05-12T06:10:31.753Z,12.20
2023-05-12T06:15:35.770Z,12.20
2023-05-12T06:20:38.467Z,12.20
2023-05-12T06:25:41.305Z,12.20
2023-05-12T06:30:43.014Z,12.30
2023-05-12T06:35:48.658Z,12.40
2023-05-12T06:40:51.291Z,12.30
2023-05-12T06:45:52.980Z,12.40
2023-05-12T06:50:54.688Z,12.40
2023-05-12T06:55:56.305Z,12.50
2023-05-12T07:01:07.117Z,12.60
2023-05-12T07:06:11.150Z,12.70
2023-05-12T07:11:12.888Z,12.80
2023-05-12T07:16:24.712Z,12.90
2023-05-12T07:21:29.585Z,12.90
2023-05-12T07:26:34.327Z,13.00
2023-05-12T07:31:37.450Z,13.10
2023-05-12T07:36:52.322Z,13.10
2023-05-12T07:41:59.278Z,13.10
2023-05-12T07:47:14.493Z,13.20
2023-05-12T07:52:19.382Z,13.30
2023-05-12T07:57:21.454Z,13.40
2023-05-12T08:02:48.063Z,13.60
2023-05-12T08:07:53.951Z,13.70
2023-05-12T08:13:04.990Z,13.90
2023-05-12T08:18:27.028Z,13.80
2023-05-12T08:23:41.093Z,14.00
2023-05-12T08:28:45.902Z,14.20
2023-05-12T08:33:51.984Z,14.30
2023-05-12T08:39:05.331Z,14.70
2023-05-12T08:44:07.967Z,14.50
2023-05-12T08:49:19.911Z,14.30
2023-05-12T08:54:22.731Z,14.20
2023-05-12T08:59:24.368Z,14.40
2023-05-12T09:04:36.793Z,14.90
2023-05-12T09:09:42.449Z,14.80
2023-05-12T09:14:47.810Z,15.00
2023-05-12T09:19:56.565Z,14.90
2023-05-12T09:25:40.806Z,14.90
2023-05-12T09:30:53.634Z,15.00
2023-05-12T09:35:58.297Z,15.10
2023-05-12T09:41:22.397Z,15.30
2023-05-12T09:52:39.035Z,15.40
2023-05-12T10:15:09.614Z,16.20
2023-05-12T10:20:12.555Z,16.10
2023-05-12T10:25:15.102Z,16.10
2023-05-12T10:30:16.985Z,16.30
2023-05-12T10:35:31.669Z,16.30
2023-05-12T10:40:34.337Z,16.40
2023-05-12T10:45:37.322Z,16.40
2023-05-12T10:50:52.924Z,16.40
2023-05-12T10:55:55.953Z,16.50
2023-05-12T11:01:05.476Z,16.60
2023-05-12T11:06:19.210Z,16.50
2023-05-12T11:11:22.402Z,16.50
2023-05-12T11:16:28.282Z,16.50
2023-05-12T11:21:30.486Z,16.60
2023-05-12T11:26:33.764Z,16.60
2023-05-12T11:31:35.411Z,16.60
2023-05-12T11:36:38.757Z,16.60
2023-05-12T11:41:42.496Z,16.70
2023-05-12T11:58:03.612Z,17.30
2023-05-12T12:03:07.374Z,17.00
2023-05-12T12:08:16.342Z,17.00
2023-05-12T12:13:22.098Z,17.00
2023-05-12T12:18:23.919Z,17.00
2023-05-12T12:23:25.677Z,17.20
2023-05-12T12:28:27.298Z,17.20
2023-05-12T12:33:29.084Z,17.30
2023-05-12T12:38:30.966Z,17.20
2023-05-12T12:43:33.702Z,17.20
2023-05-12T12:48:37.661Z,17.10
2023-05-12T12:53:39.284Z,17.30
2023-05-12T12:58:41.310Z,17.50
2023-05-12T13:03:43.024Z,17.30
2023-05-12T13:08:44.714Z,17.40
2023-05-12T13:13:46.634Z,17.30
2023-05-12T13:18:48.356Z,17.50
2023-05-12T13:23:51.013Z,17.50
2023-05-12T13:28:53.757Z,17.60
2023-05-12T13:34:15.767Z,17.50
2023-05-12T13:39:19.882Z,17.30
2023-05-12T13:44:24.709Z,17.40
2023-05-12T13:49:28.607Z,17.40
2023-05-12T13:54:31.098Z,17.60
2023-05-12T13:59:33.809Z,17.60
2023-05-12T14:04:41.674Z,17.70
2023-05-12T14:09:44.451Z,17.60
2023-05-12T14:14:49.811Z,17.70
2023-05-12T14:19:51.555Z,17.70
2023-05-12T14:24:54.152Z,17.70
2023-05-12T14:29:56.038Z,17.90
2023-05-12T14:34:58.738Z,18.00
2023-05-12T14:40:07.442Z,18.20
2023-05-12T14:45:10.277Z,18.20
2023-05-12T14:50:12.068Z,18.10
2023-05-12T14:55:14.755Z,18.00
2023-05-12T15:00:16.684Z,17.90
2023-05-12T15:05:18.469Z,17.90
2023-05-12T15:10:20.385Z,17.80
2023-05-12T15:15:23.800Z,17.80
2023-05-12T15:20:26.152Z,17.80
2023-05-12T15:25:30.018Z,17.70
2023-05-12T15:30:31.680Z,17.50
2023-05-12T15:35:34.356Z,17.30
2023-05-12T15:40:37.146Z,17.30
2023-05-12T15:45:39.372Z,17.20
2023-05-12T15:50:42.059Z,17.20
2023-05-12T16:01:21.000Z,17.00
2023-05-12T16:06:27.785Z,16.80
2023-05-12T16:11:53.252Z,17.00
2023-05-12T16:17:02.882Z,17.10
2023-05-12T16:22:15.603Z,17.10
2023-05-12T16:27:22.441Z,17.10
2023-05-12T16:32:30.339Z,17.10
2023-05-12T16:37:32.286Z,17.10
2023-05-12T16:43:12.477Z,17.20
2023-05-12T16:48:38.295Z,17.20
2023-05-12T16:54:13.966Z,17.30
2023-05-12T16:59:19.697Z,17.20
2023-05-12T17:04:21.403Z,17.20
2023-05-12T17:09:43.410Z,17.00
2023-05-12T17:14:52.952Z,17.00
2023-05-12T17:20:12.389Z,16.90
2023-05-12T17:25:21.319Z,16.80
2023-05-12T17:30:33.981Z,16.70
2023-05-12T17:35:38.668Z,16.60
2023-05-12T17:40:57.406Z,16.80
2023-05-12T17:46:01.090Z,17.10
2023-05-12T17:51:25.700Z,17.20
2023-05-12T17:56:52.980Z,17.30
2023-05-12T18:01:54.697Z,17.10
2023-05-12T18:07:05.829Z,16.70
2023-05-12T18:12:09.928Z,16.60
2023-05-12T18:17:23.916Z,16.40
2023-05-12T18:22:34.787Z,16.30
2023-05-12T18:28:02.277Z,16.20
2023-05-12T18:33:04.075Z,16.10
2023-05-12T18:38:07.045Z,15.90
2023-05-12T18:43:17.890Z,15.80
2023-05-12T18:48:22.735Z,15.70
2023-05-12T18:53:27.374Z,15.60
2023-05-12T18:58:29.010Z,15.60
2023-05-12T19:03:45.447Z,15.60
2023-05-12T19:08:51.554Z,15.40
2023-05-12T19:13:53.329Z,15.40
2023-05-12T19:18:55.445Z,15.40
2023-05-12T19:23:58.207Z,15.30
2023-05-12T19:29:02.027Z,15.20
2023-05-12T19:34:07.156Z,15.20
2023-05-12T19:39:10.030Z,15.10
2023-05-12T19:44:13.724Z,15.10
2023-05-12T19:49:16.426Z,15.10
2023-05-12T19:54:19.160Z,15.00
2023-05-12T19:59:20.958Z,15.00
2023-05-12T20:04:25.454Z,14.90
2023-05-12T20:09:30.669Z,14.80
2023-05-12T20:14:35.581Z,14.90
2023-05-12T20:19:37.251Z,14.70
2023-05-12T20:24:44.280Z,14.70
2023-05-12T20:29:49.034Z,14.60
2023-05-12T20:34:50.704Z,14.50
2023-05-12T20:39:54.038Z,14.60
2023-05-12T20:45:01.883Z,14.50
2023-05-12T20:50:05.679Z,14.50
2023-05-12T20:55:10.521Z,14.50
2023-05-12T21:00:14.215Z,14.40
2023-05-12T21:05:16.893Z,14.30
2023-05-12T21:10:22.923Z,14.30
2023-05-12T21:15:26.837Z,14.20
2023-05-12T21:20:29.574Z,14.10
2023-05-12T21:25:32.234Z,14.10
2023-05-12T21:30:36.801Z,14.10
2023-05-12T21:35:46.593Z,14.10
2023-05-12T21:40:52.553Z,14.00
2023-05-12T21:45:54.396Z,14.00
2023-05-12T21:51:03.591Z,13.90
2023-05-12T21:56:05.668Z,13.80
2023-05-12T22:01:07.726Z,13.80
2023-05-12T22:06:09.392Z,13.70
2023-05-12T22:11:25.293Z,13.50
2023-05-12T22:16:40.716Z,13.50
2023-05-12T22:21:45.833Z,13.40
2023-05-12T22:26:54.770Z,13.50
2023-05-12T22:31:56.400Z,13.30
2023-05-12T22:36:58.056Z,13.10
2023-05-12T22:42:00.942Z,13.00
2023-05-12T22:47:03.672Z,13.00
2023-05-12T22:52:06.042Z,13.00
2023-05-12T22:57:15.516Z,12.90
2023-05-12T23:02:17.198Z,12.90
2023-05-12T23:07:19.833Z,12.90
